createdAt,value
2023-06-02T00:01:36.990Z,8.48
2023-06-02T00:04:07.611Z,8.43
2023-06-02T00:06:39.320Z,8.24
2023-06-02T00:09:09.156Z,8.28
2023-06-02T00:11:38.046Z,8.25
2023-06-02T00:14:12.292Z,8.27
2023-06-02T00:16:47.466Z,8.27
2023-06-02T00:19:21.370Z,8.20
2023-06-02T00:21:55.111Z,8.08
2023-06-02T00:24:23.601Z,7.96
2023-06-02T00:26:52.401Z,7.98
2023-06-02T00:29:20.945Z,7.91
2023-06-02T00:31:49.155Z,7.81
2023-06-02T00:34:18.961Z,7.74
2023-06-02T00:36:47.392Z,7.63
2023-06-02T00:39:16.708Z,7.67
2023-06-02T00:41:45.790Z,7.65
2023-06-02T00:44:14.383Z,7.69
2023-06-02T00:46:42.857Z,7.73
2023-06-02T00:49:11.447Z,7.88
2023-06-02T00:51:42.788Z,7.97
2023-06-02T00:54:11.630Z,8.08
2023-06-02T00:56:40.647Z,8.17
2023-06-02T00:59:09.008Z,8.23
2023-06-02T01:01:39.945Z,8.26
2023-06-02T01:04:08.591Z,8.31
2023-06-02T01:06:39.479Z,8.33
2023-06-02T01:09:10.304Z,8.27
2023-06-02T01:11:38.922Z,8.27
2023-06-02T01:14:07.176Z,8.25
2023-06-02T01:16:36.533Z,8.20
2023-06-02T01:19:07.706Z,8.17
2023-06-02T01:21:38.629Z,8.10
2023-06-02T01:24:09.293Z,8.08
2023-06-02T01:26:37.467Z,8.08
2023-06-02T01:29:05.816Z,8.00
2023-06-02T01:31:37.062Z,7.96
2023-06-02T01:34:08.054Z,7.94
2023-06-02T01:36:38.579Z,7.96
2023-06-02T01:39:09.888Z,7.97
2023-06-02T01:41:41.267Z,7.93
2023-06-02T01:44:09.771Z,7.87
2023-06-02T01:46:38.051Z,7.83
2023-06-02T01:49:06.170Z,7.81
2023-06-02T01:51:34.709Z,7.81
2023-06-02T01:54:03.490Z,7.82
2023-06-02T01:56:33.162Z,7.83
2023-06-02T01:59:01.660Z,7.84
2023-06-02T02:01:30.189Z,7.67
2023-06-02T02:03:58.606Z,7.62
2023-06-02T02:06:31.231Z,7.51
2023-06-02T02:08:59.496Z,7.40
2023-06-02T02:11:30.309Z,7.37
2023-06-02T02:13:59.924Z,7.40
2023-06-02T02:16:28.375Z,7.43
2023-06-02T02:18:57.661Z,7.40
2023-06-02T02:21:26.790Z,7.38
2023-06-02T02:23:55.590Z,7.38
2023-06-02T02:26:24.662Z,7.37
2023-06-02T02:28:53.330Z,7.39
2023-06-02T02:31:23.848Z,7.37
2023-06-02T02:33:52.119Z,7.38
2023-06-02T02:36:20.894Z,7.37
2023-06-02T02:38:49.477Z,7.38
2023-06-02T02:41:19.890Z,7.33
2023-06-02T02:43:48.382Z,7.30
2023-06-02T02:46:17.470Z,7.26
2023-06-02T02:48:47.266Z,7.28
2023-06-02T02:51:15.735Z,7.27
2023-06-02T02:53:44.543Z,7.11
2023-06-02T02:56:13.844Z,7.07
2023-06-02T02:58:42.262Z,7.02
2023-06-02T03:01:16.672Z,6.97
2023-06-02T03:03:47.075Z,6.95
2023-06-02T03:06:19.263Z,6.96
2023-06-02T03:08:47.835Z,6.99
2023-06-02T03:11:16.371Z,7.00
2023-06-02T03:13:44.500Z,7.02
2023-06-02T03:16:13.802Z,7.00
2023-06-02T03:18:42.423Z,6.98
2023-06-02T03:21:12.736Z,6.98
2023-06-02T03:23:41.878Z,6.97
2023-06-02T03:26:13.065Z,6.92
2023-06-02T03:28:43.269Z,6.84
2023-06-02T03:31:12.409Z,6.78
2023-06-02T03:33:40.684Z,6.77
2023-06-02T03:36:09.198Z,6.71
2023-06-02T03:38:41.981Z,6.68
2023-06-02T03:41:10.674Z,6.67
2023-06-02T03:43:39.068Z,6.66
2023-06-02T03:46:09.056Z,6.66
2023-06-02T03:48:37.846Z,6.60
2023-06-02T03:51:07.729Z,6.56
2023-06-02T03:53:37.086Z,6.54
2023-06-02T03:56:07.053Z,6.53
2023-06-02T03:58:35.474Z,6.51
2023-06-02T04:01:03.941Z,6.48
2023-06-02T04:03:33.925Z,6.44
2023-06-02T04:06:02.413Z,6.42
2023-06-02T04:08:30.953Z,6.40
2023-06-02T04:10:59.305Z,6.39
2023-06-02T04:13:29.514Z,6.38
2023-06-02T04:15:59.327Z,6.36
2023-06-02T04:18:28.836Z,6.37
2023-06-02T04:21:00.050Z,6.42
2023-06-02T04:23:29.590Z,6.44
2023-06-02T04:25:57.797Z,6.50
2023-06-02T04:28:27.135Z,6.53
2023-06-02T04:30:58.277Z,6.56
2023-06-02T04:33:28.783Z,6.64
2023-06-02T04:35:57.675Z,6.70
2023-06-02T04:38:26.138Z,6.75
2023-06-02T04:40:54.820Z,6.80
2023-06-02T04:43:23.633Z,6.80
2023-06-02T04:45:52.020Z,6.84
2023-06-02T04:48:23.430Z,6.89
2023-06-02T04:50:51.951Z,6.95
2023-06-02T04:53:20.377Z,7.01
2023-06-02T04:55:49.506Z,7.11
2023-06-02T04:58:18.436Z,7.23
2023-06-02T05:00:46.815Z,7.33
2023-06-02T05:03:15.355Z,7.43
2023-06-02T05:05:45.528Z,7.52
2023-06-02T05:08:14.782Z,7.58
2023-06-02T05:10:43.469Z,7.66
2023-06-02T05:13:11.749Z,7.74
2023-06-02T05:15:40.830Z,7.85
2023-06-02T05:18:09.973Z,7.93
2023-06-02T05:20:38.241Z,8.01
2023-06-02T05:23:07.792Z,8.07
2023-06-02T05:25:37.051Z,8.17
2023-06-02T05:28:05.618Z,8.29
2023-06-02T05:30:34.034Z,8.42
2023-06-02T05:33:02.778Z,8.63
2023-06-02T05:35:31.456Z,8.75
2023-06-02T05:37:59.858Z,8.93
2023-06-02T05:40:29.723Z,9.02
2023-06-02T05:42:58.742Z,9.34
2023-06-02T05:45:26.918Z,9.61
2023-06-02T05:47:55.476Z,9.94
2023-06-02T05:50:25.861Z,10.25
2023-06-02T05:52:54.342Z,10.58
2023-06-02T05:55:23.308Z,11.02
2023-06-02T05:57:53.365Z,11.55
2023-06-02T06:00:22.874Z,12.00
2023-06-02T06:02:52.268Z,12.40
2023-06-02T06:05:27.042Z,12.96
2023-06-02T06:07:55.710Z,13.55
2023-06-02T06:10:24.666Z,14.12
2023-06-02T06:12:55.376Z,14.77
2023-06-02T06:15:23.765Z,15.12
2023-06-02T06:17:53.208Z,15.78
2023-06-02T06:20:22.381Z,16.38
2023-06-02T06:22:51.886Z,17.04
2023-06-02T06:25:22.390Z,17.64
2023-06-02T06:27:52.370Z,17.93
2023-06-02T06:30:23.791Z,18.02
2023-06-02T06:32:56.123Z,18.74
2023-06-02T06:35:25.567Z,19.08
2023-06-02T06:37:54.710Z,19.55
2023-06-02T06:40:23.009Z,20.17
2023-06-02T06:42:51.452Z,20.68
2023-06-02T06:45:27.897Z,21.06
2023-06-02T06:47:56.481Z,21.06
2023-06-02T06:50:25.385Z,21.04
2023-06-02T06:52:53.570Z,21.55
2023-06-02T06:55:22.075Z,21.69
2023-06-02T06:57:50.702Z,21.95
2023-06-02T07:00:19.381Z,22.00
2023-06-02T07:02:49.708Z,21.76
2023-06-02T07:05:18.194Z,22.12
2023-06-02T07:07:46.872Z,22.23
2023-06-02T07:10:15.747Z,22.01
2023-06-02T07:12:44.237Z,22.16
2023-06-02T07:15:13.395Z,22.23
2023-06-02T07:17:42.699Z,22.20
2023-06-02T07:20:14.013Z,21.54
2023-06-02T07:22:42.384Z,22.01
2023-06-02T07:25:10.966Z,22.49
2023-06-02T07:27:39.656Z,22.51
2023-06-02T07:30:09.173Z,22.46
2023-06-02T07:32:37.416Z,22.47
2023-06-02T07:35:06.140Z,22.35
2023-06-02T07:37:36.114Z,22.24
2023-06-02T07:40:05.366Z,22.22
2023-06-02T07:42:33.625Z,22.36
2023-06-02T07:45:01.856Z,22.18
2023-06-02T07:47:30.255Z,22.44
2023-06-02T07:49:58.571Z,22.73
2023-06-02T07:52:26.785Z,21.76
2023-06-02T07:54:56.543Z,21.21
2023-06-02T07:57:24.922Z,21.22
2023-06-02T07:59:55.344Z,20.77
2023-06-02T08:02:23.921Z,20.13
2023-06-02T08:04:52.730Z,19.80
2023-06-02T08:07:21.829Z,20.15
2023-06-02T08:09:50.330Z,19.99
2023-06-02T08:12:20.306Z,19.64
2023-06-02T08:14:48.804Z,20.05
2023-06-02T08:17:17.196Z,20.39
2023-06-02T08:19:45.328Z,20.47
2023-06-02T08:22:13.523Z,20.66
2023-06-02T08:24:42.595Z,20.50
2023-06-02T08:27:10.803Z,21.15
2023-06-02T08:29:40.406Z,21.62
2023-06-02T08:32:08.649Z,21.50
2023-06-02T08:34:37.790Z,22.32
2023-06-02T08:37:06.376Z,22.42
2023-06-02T08:39:36.179Z,23.00
2023-06-02T08:42:04.928Z,23.34
2023-06-02T08:44:33.972Z,22.52
2023-06-02T08:47:05.241Z,22.38
2023-06-02T08:49:37.048Z,22.32
2023-06-02T08:52:07.948Z,22.29
2023-06-02T08:54:37.699Z,22.54
2023-06-02T08:57:07.287Z,21.70
2023-06-02T08:59:35.565Z,21.39
2023-06-02T09:02:06.057Z,21.77
2023-06-02T09:04:34.821Z,22.17
2023-06-02T09:07:18.177Z,22.01
2023-06-02T09:09:47.522Z,21.76
2023-06-02T09:12:16.704Z,21.72
2023-06-02T09:14:45.120Z,22.32
2023-06-02T09:17:28.367Z,22.85
2023-06-02T09:19:57.748Z,22.16
2023-06-02T09:22:26.141Z,22.56
2023-06-02T09:24:55.237Z,22.89
2023-06-02T09:27:25.748Z,23.23
2023-06-02T09:30:02.671Z,23.09
2023-06-02T09:32:38.395Z,22.93
2023-06-02T09:35:08.344Z,22.87
2023-06-02T09:37:36.496Z,22.95
2023-06-02T09:40:08.611Z,23.15
2023-06-02T09:42:44.739Z,23.54
2023-06-02T09:45:14.621Z,23.54
2023-06-02T09:47:44.486Z,23.30
2023-06-02T09:50:33.212Z,23.80
2023-06-02T09:53:03.540Z,24.22
2023-06-02T09:55:34.082Z,23.75
2023-06-02T09:58:03.594Z,24.11
2023-06-02T10:00:32.167Z,24.67
2023-06-02T10:03:03.940Z,24.78
2023-06-02T10:05:32.588Z,24.22
2023-06-02T10:08:06.433Z,24.88
2023-06-02T10:10:46.163Z,24.55
2023-06-02T10:13:24.209Z,24.64
2023-06-02T10:15:59.637Z,25.05
2023-06-02T10:18:51.974Z,24.49
2023-06-02T10:21:30.965Z,24.43
2023-06-02T10:24:03.320Z,24.18
2023-06-02T10:26:45.575Z,23.51
2023-06-02T10:29:15.487Z,24.41
2023-06-02T10:31:44.404Z,24.31
2023-06-02T10:34:30.064Z,24.61
2023-06-02T10:37:18.615Z,24.88
2023-06-02T10:39:52.674Z,25.43
2023-06-02T10:42:21.701Z,25.17
2023-06-02T10:44:50.362Z,24.89
2023-06-02T10:47:38.331Z,24.55
2023-06-02T10:50:11.523Z,24.67
2023-06-02T10:53:00.440Z,24.83
2023-06-02T10:55:42.915Z,25.39
2023-06-02T10:58:14.232Z,25.99
2023-06-02T11:00:51.751Z,25.96
2023-06-02T11:03:34.445Z,25.63
2023-06-02T11:06:22.470Z,25.34
2023-06-02T11:08:53.364Z,25.60
2023-06-02T11:11:40.724Z,25.75
2023-06-02T11:14:10.889Z,25.61
2023-06-02T11:16:39.454Z,26.00
2023-06-02T11:19:08.115Z,25.62
2023-06-02T11:21:36.406Z,25.19
2023-06-02T11:24:05.250Z,25.26
2023-06-02T11:26:33.724Z,25.23
2023-06-02T11:29:17.647Z,25.02
2023-06-02T11:31:53.852Z,25.05
2023-06-02T11:34:22.248Z,24.57
2023-06-02T11:36:50.817Z,24.27
2023-06-02T11:39:19.212Z,24.38
2023-06-02T11:41:57.714Z,24.57
2023-06-02T11:44:26.380Z,24.27
2023-06-02T11:46:56.193Z,24.01
2023-06-02T11:49:24.740Z,23.90
2023-06-02T11:51:58.662Z,24.08
2023-06-02T11:54:27.058Z,24.19
2023-06-02T11:56:55.533Z,24.25
2023-06-02T11:59:24.721Z,24.50
2023-06-02T12:01:54.645Z,24.14
2023-06-02T12:04:24.375Z,24.04
2023-06-02T12:06:53.669Z,24.18
2023-06-02T12:09:22.466Z,24.44
2023-06-02T12:11:56.396Z,24.03
2023-06-02T12:14:24.654Z,24.01
2023-06-02T12:17:03.741Z,23.71
2023-06-02T12:19:33.439Z,24.03
2023-06-02T12:22:09.760Z,24.22
2023-06-02T12:24:39.149Z,23.84
2023-06-02T12:27:08.583Z,23.97
2023-06-02T12:29:37.599Z,23.55
2023-06-02T12:32:06.803Z,23.43
2023-06-02T12:34:36.755Z,23.57
2023-06-02T12:37:05.475Z,23.41
2023-06-02T12:39:35.554Z,23.59
2023-06-02T12:42:07.077Z,23.57
2023-06-02T12:44:35.327Z,23.60
2023-06-02T12:47:04.427Z,23.26
2023-06-02T12:49:33.353Z,23.43
2023-06-02T12:52:03.548Z,23.65
2023-06-02T12:54:31.975Z,23.33
2023-06-02T12:57:00.380Z,23.23
2023-06-02T12:59:28.800Z,23.50
2023-06-02T13:01:57.170Z,23.39
2023-06-02T13:04:25.353Z,23.23
2023-06-02T13:06:54.175Z,23.27
2023-06-02T13:09:24.118Z,23.29
2023-06-02T13:11:53.556Z,23.16
2023-06-02T13:14:21.889Z,23.34
2023-06-02T13:16:50.394Z,23.14
2023-06-02T13:19:18.614Z,23.29
2023-06-02T13:21:47.328Z,23.53
2023-06-02T13:24:17.295Z,23.72
2023-06-02T13:26:48.268Z,23.75
2023-06-02T13:29:16.423Z,23.42
2023-06-02T13:31:44.906Z,23.48
2023-06-02T13:34:13.309Z,22.88
2023-06-02T13:36:41.663Z,22.87
2023-06-02T13:39:10.221Z,23.02
2023-06-02T13:41:39.066Z,23.10
2023-06-02T13:44:13.002Z,23.34
2023-06-02T13:46:41.597Z,23.19
2023-06-02T13:49:09.766Z,23.39
2023-06-02T13:51:38.792Z,23.53
2023-06-02T13:54:07.104Z,23.56
2023-06-02T13:56:35.211Z,23.61
2023-06-02T13:59:03.466Z,23.68
2023-06-02T14:01:33.674Z,23.68
2023-06-02T14:04:02.071Z,23.21
2023-06-02T14:06:31.559Z,23.42
2023-06-02T14:09:00.109Z,23.26
2023-06-02T14:11:28.454Z,23.25
2023-06-02T14:13:56.892Z,23.00
2023-06-02T14:16:25.304Z,22.89
2023-06-02T14:18:55.358Z,22.83
2023-06-02T14:21:23.933Z,22.69
2023-06-02T14:23:52.499Z,22.51
2023-06-02T14:26:20.988Z,22.74
2023-06-02T14:28:49.702Z,22.58
2023-06-02T14:31:19.504Z,22.67
2023-06-02T14:33:48.130Z,22.68
2023-06-02T14:36:18.178Z,22.70
2023-06-02T14:38:46.409Z,22.40
2023-06-02T14:41:14.576Z,22.07
2023-06-02T14:43:42.918Z,21.98
2023-06-02T14:46:11.184Z,22.10
2023-06-02T14:48:39.560Z,22.09
2023-06-02T14:51:07.983Z,22.24
2023-06-02T14:53:37.710Z,22.60
2023-06-02T14:56:06.695Z,22.72
2023-06-02T14:58:35.187Z,22.78
2023-06-02T15:01:04.853Z,22.64
2023-06-02T15:03:33.329Z,22.46
2023-06-02T15:06:02.534Z,22.25
2023-06-02T15:08:30.834Z,21.97
2023-06-02T15:11:00.536Z,21.88
2023-06-02T15:13:32.024Z,21.99
2023-06-02T15:16:01.094Z,21.91
2023-06-02T15:18:34.459Z,22.05
2023-06-02T15:21:08.629Z,22.02
2023-06-02T15:23:36.769Z,22.11
2023-06-02T15:26:06.790Z,22.02
2023-06-02T15:28:35.191Z,22.10
2023-06-02T15:31:04.311Z,22.15
2023-06-02T15:33:32.734Z,21.94
2023-06-02T15:36:01.192Z,21.72
2023-06-02T15:38:29.612Z,21.73
2023-06-02T15:40:58.191Z,21.90
2023-06-02T15:43:28.172Z,21.76
2023-06-02T15:45:56.392Z,21.86
2023-06-02T15:48:24.633Z,21.79
2023-06-02T15:50:52.975Z,21.73
2023-06-02T15:53:21.525Z,21.77
2023-06-02T15:55:50.141Z,21.64
2023-06-02T15:58:18.614Z,21.52
2023-06-02T16:00:48.260Z,21.34
2023-06-02T16:03:16.575Z,21.21
2023-06-02T16:05:45.085Z,21.11
2023-06-02T16:08:13.335Z,20.84
2023-06-02T16:10:41.688Z,20.99
2023-06-02T16:13:10.183Z,20.97
2023-06-02T16:15:38.536Z,20.94
2023-06-02T16:18:08.620Z,20.94
2023-06-02T16:20:37.607Z,20.88
2023-06-02T16:23:05.782Z,20.77
2023-06-02T16:25:34.397Z,20.79
2023-06-02T16:28:02.709Z,20.86
2023-06-02T16:30:30.929Z,20.81
2023-06-02T16:33:00.674Z,20.69
2023-06-02T16:35:30.368Z,20.52
2023-06-02T16:37:58.708Z,20.42
2023-06-02T16:40:27.413Z,20.25
2023-06-02T16:42:55.738Z,20.20
2023-06-02T16:45:24.257Z,20.18
2023-06-02T16:47:52.654Z,20.06
2023-06-02T16:50:21.200Z,20.09
2023-06-02T16:52:51.223Z,20.15
2023-06-02T16:55:19.491Z,20.02
2023-06-02T16:57:48.332Z,20.15
2023-06-02T17:00:17.348Z,20.08
2023-06-02T17:02:45.484Z,20.13
2023-06-02T17:05:14.050Z,20.11
2023-06-02T17:07:42.467Z,20.05
2023-06-02T17:10:12.359Z,19.99
2023-06-02T17:12:41.181Z,19.79
2023-06-02T17:15:09.702Z,19.78
2023-06-02T17:17:37.891Z,19.89
2023-06-02T17:20:07.441Z,19.78
2023-06-02T17:22:37.808Z,19.84
2023-06-02T17:25:08.356Z,19.73
2023-06-02T17:27:38.968Z,19.68
2023-06-02T17:30:08.201Z,19.73
2023-06-02T17:32:37.403Z,19.75
2023-06-02T17:35:06.339Z,19.77
2023-06-02T17:37:35.250Z,19.71
2023-06-02T17:40:06.112Z,19.51
2023-06-02T17:42:35.026Z,19.46
2023-06-02T17:45:05.125Z,19.30
2023-06-02T17:47:34.465Z,19.31
2023-06-02T17:50:02.737Z,19.20
2023-06-02T17:52:31.952Z,18.96
2023-06-02T17:55:00.598Z,18.93
2023-06-02T17:57:29.370Z,18.81
2023-06-02T17:59:57.640Z,18.69
2023-06-02T18:02:27.407Z,18.74
2023-06-02T18:04:55.813Z,18.65
2023-06-02T18:07:25.339Z,18.46
2023-06-02T18:09:53.815Z,18.39
2023-06-02T18:12:22.534Z,18.29
2023-06-02T18:14:51.097Z,18.16
2023-06-02T18:17:20.735Z,18.07
2023-06-02T18:19:51.300Z,17.88
2023-06-02T18:22:20.107Z,17.85
2023-06-02T18:24:48.600Z,17.74
2023-06-02T18:27:16.916Z,17.68
2023-06-02T18:29:45.064Z,17.66
2023-06-02T18:32:13.270Z,17.50
2023-06-02T18:34:41.394Z,17.47
2023-06-02T18:37:11.086Z,17.40
2023-06-02T18:39:39.655Z,17.36
2023-06-02T18:42:08.060Z,17.28
2023-06-02T18:44:42.622Z,17.24
2023-06-02T18:47:14.271Z,17.14
2023-06-02T18:49:42.576Z,17.13
2023-06-02T18:52:12.196Z,17.08
2023-06-02T18:54:42.561Z,17.06
2023-06-02T18:57:16.427Z,16.97
2023-06-02T18:59:49.019Z,16.89
2023-06-02T19:02:19.191Z,16.90
2023-06-02T19:04:48.025Z,16.86
2023-06-02T19:07:18.161Z,16.79
2023-06-02T19:09:46.408Z,16.67
2023-06-02T19:12:17.184Z,16.59
2023-06-02T19:14:46.117Z,16.56
2023-06-02T19:17:17.704Z,16.48
2023-06-02T19:19:50.580Z,16.44
2023-06-02T19:22:23.856Z,16.37
2023-06-02T19:24:52.289Z,16.33
2023-06-02T19:27:21.748Z,16.25
2023-06-02T19:29:51.036Z,16.23
2023-06-02T19:32:20.796Z,16.18
2023-06-02T19:34:50.751Z,16.03
2023-06-02T19:37:21.076Z,15.93
2023-06-02T19:39:52.463Z,15.89
2023-06-02T19:42:22.405Z,15.85
2023-06-02T19:44:50.800Z,15.74
2023-06-02T19:47:19.671Z,15.59
2023-06-02T19:49:48.051Z,15.58
2023-06-02T19:52:16.557Z,15.41
2023-06-02T19:54:47.069Z,15.37
2023-06-02T19:57:16.837Z,15.24
2023-06-02T19:59:45.423Z,15.20
2023-06-02T20:02:13.874Z,15.07
2023-06-02T20:04:42.486Z,14.96
2023-06-02T20:07:14.401Z,14.93
2023-06-02T20:09:44.583Z,14.85
2023-06-02T20:12:12.915Z,14.75
2023-06-02T20:14:43.475Z,14.65
2023-06-02T20:17:12.371Z,14.59
2023-06-02T20:19:41.095Z,14.55
2023-06-02T20:22:09.413Z,14.42
2023-06-02T20:24:38.112Z,14.35
2023-06-02T20:27:07.736Z,14.26
2023-06-02T20:29:37.861Z,14.16
2023-06-02T20:32:09.475Z,14.03
2023-06-02T20:34:38.292Z,13.95
2023-06-02T20:37:06.633Z,13.86
2023-06-02T20:39:34.939Z,13.80
2023-06-02T20:42:03.400Z,13.74
2023-06-02T20:44:32.767Z,13.65
2023-06-02T20:47:03.107Z,13.58
2023-06-02T20:49:32.961Z,13.44
2023-06-02T20:52:04.919Z,13.36
2023-06-02T20:54:34.951Z,13.17
2023-06-02T20:57:03.813Z,13.09
2023-06-02T20:59:32.603Z,12.94
2023-06-02T21:02:01.335Z,12.92
2023-06-02T21:04:31.544Z,12.81
2023-06-02T21:07:03.862Z,12.76
2023-06-02T21:09:37.551Z,12.72
2023-06-02T21:12:08.247Z,12.65
2023-06-02T21:14:37.592Z,12.56
2023-06-02T21:17:06.965Z,12.52
2023-06-02T21:19:36.165Z,12.44
2023-06-02T21:22:06.566Z,12.41
2023-06-02T21:24:38.083Z,12.21
2023-06-02T21:27:06.909Z,12.18
2023-06-02T21:29:35.595Z,12.13
2023-06-02T21:32:07.319Z,12.08
2023-06-02T21:34:37.173Z,12.02
2023-06-02T21:37:09.407Z,11.93
2023-06-02T21:39:37.811Z,11.83
2023-06-02T21:42:06.421Z,11.71
2023-06-02T21:44:35.991Z,11.70
2023-06-02T21:47:04.180Z,11.68
2023-06-02T21:49:32.453Z,11.58
2023-06-02T21:52:02.472Z,11.54
2023-06-02T21:54:32.089Z,11.46
2023-06-02T21:57:01.724Z,11.39
2023-06-02T21:59:30.793Z,11.31
2023-06-02T22:02:00.004Z,11.19
2023-06-02T22:04:28.871Z,11.14
2023-06-02T22:07:00.885Z,11.09
2023-06-02T22:09:31.492Z,11.11
2023-06-02T22:11:59.635Z,11.09
2023-06-02T22:14:28.464Z,11.05
2023-06-02T22:16:58.939Z,11.03
2023-06-02T22:19:27.430Z,11.03
2023-06-02T22:21:57.605Z,11.03
2023-06-02T22:24:28.524Z,11.01
2023-06-02T22:27:00.616Z,10.98
2023-06-02T22:29:30.981Z,10.94
2023-06-02T22:32:01.517Z,10.89
2023-06-02T22:34:30.679Z,10.79
2023-06-02T22:36:58.814Z,10.69
2023-06-02T22:39:28.829Z,10.57
2023-06-02T22:41:57.286Z,10.52
2023-06-02T22:44:28.077Z,10.49
2023-06-02T22:46:56.964Z,10.47
2023-06-02T22:49:25.465Z,10.42
2023-06-02T22:51:53.590Z,10.44
2023-06-02T22:54:25.497Z,10.35
2023-06-02T22:56:56.599Z,10.20
2023-06-02T22:59:26.630Z,10.13
2023-06-02T23:01:55.364Z,10.03
2023-06-02T23:04:25.860Z,9.92
2023-06-02T23:06:54.623Z,9.78
2023-06-02T23:09:25.929Z,9.67
2023-06-02T23:11:57.366Z,9.59
2023-06-02T23:14:27.658Z,9.40
2023-06-02T23:16:56.565Z,9.32
2023-06-02T23:19:28.352Z,9.30
2023-06-02T23:21:59.635Z,9.23
2023-06-02T23:24:31.208Z,9.14
2023-06-02T23:27:04.133Z,9.03
2023-06-02T23:29:35.067Z,9.02
2023-06-02T23:32:03.507Z,8.99
2023-06-02T23:34:35.562Z,8.90
2023-06-02T23:37:07.163Z,8.82
2023-06-02T23:39:35.645Z,8.77
2023-06-02T23:42:05.323Z,8.71
2023-06-02T23:44:37.625Z,8.62
2023-06-02T23:47:06.026Z,8.51
2023-06-02T23:49:34.199Z,8.45
2023-06-02T23:52:03.837Z,8.37
2023-06-02T23:54:32.078Z,8.28
2023-06-02T23:57:01.390Z,8.23
2023-06-02T23:59:30.570Z,8.16
